Time,TemperatureF,DewpointF,PressureIn,WindDirection,WindDirectionDegrees,WindSpeedMPH,WindSpeedGustMPH,Humidity,HourlyPrecipIn,Conditions,Clouds,dailyrainin,SoftwareType,DateUTC
2013-01-16 00:13:00,69.4,62.0,30.09,South,182,0.0,1.0,77,0.00,,,0.00,weatherlink.com 1.10,2013-01-16 05:13:00,
2013-01-16 00:28:00,69.3,61.0,30.08,SSW,192,0.0,3.0,76,0.00,,,0.00,weatherlink.com 1.10,2013-01-16 05:28:00,
2013-01-16 00:43:00,69.1,62.0,30.08,South,175,0.0,3.0,77,0.00,,,0.00,weatherlink.com 1.10,2013-01-16 05:43:00,
2013-01-16 00:58:00,69.0,62.0,30.08,South,175,0.0,0.0,77,0.00,,,0.00,weatherlink.com 1.10,2013-01-16 05:58:00,
2013-01-16 01:13:00,69.0,61.0,30.09,SW,215,0.0,2.0,76,0.00,,,0.00,weatherlink.com 1.10,2013-01-16 06:13:00,
2013-01-16 01:29:00,69.1,61.0,30.08,WSW,248,3.0,4.0,76,0.00,,,0.00,weatherlink.com 1.10,2013-01-16 06:29:00,
2013-01-16 01:43:00,69.1,62.0,30.09,SW,229,3.0,6.0,77,0.00,,,0.00,weatherlink.com 1.10,2013-01-16 06:43:00,
2013-01-16 01:58:00,68.9,62.0,30.09,SW,225,3.0,4.0,78,0.00,,,0.00,weatherlink.com 1.10,2013-01-16 06:58:00,
2013-01-16 02:13:00,68.8,61.0,30.09,SSW,212,4.0,4.0,77,0.00,,,0.00,weatherlink.com 1.10,2013-01-16 07:13:00,
2013-01-16 02:28:00,68.6,61.0,30.08,SSW,194,0.0,4.0,76,0.00,,,0.00,weatherlink.com 1.10,2013-01-16 07:28:00,
2013-01-16 02:43:00,68.5,61.0,30.08,South,185,4.0,5.0,76,0.00,,,0.00,weatherlink.com 1.10,2013-01-16 07:43:00,
2013-01-16 02:58:00,68.3,60.0,30.08,South,186,4.0,5.0,76,0.00,,,0.00,weatherlink.com 1.10,2013-01-16 07:58:00,
2013-01-16 03:13:00,68.2,60.0,30.07,South,186,0.0,1.0,75,0.00,,,0.00,weatherlink.com 1.10,2013-01-16 08:13:00,
2013-01-16 03:28:00,68.1,60.0,30.07,South,181,0.0,3.0,75,0.00,,,0.00,weatherlink.com 1.10,2013-01-16 08:28:00,
2013-01-16 03:43:00,67.9,60.0,30.07,SSE,148,3.0,5.0,76,0.00,,,0.00,weatherlink.com 1.10,2013-01-16 08:43:00,
2013-01-16 03:58:00,67.8,60.0,30.07,SSE,162,0.0,3.0,76,0.00,,,0.00,weatherlink.com 1.10,2013-01-16 08:58:00,
2013-01-16 04:13:00,67.6,59.0,30.07,SSE,162,0.0,1.0,75,0.00,,,0.00,weatherlink.com 1.10,2013-01-16 09:13:00,
2013-01-16 04:28:00,67.6,59.0,30.07,SSE,162,0.0,3.0,75,0.00,,,0.00,weatherlink.com 1.10,2013-01-16 09:28:00,
2013-01-16 04:43:00,67.2,59.0,30.07,SSE,162,0.0,0.0,76,0.00,,,0.00,weatherlink.com 1.10,2013-01-16 09:43:00,
2013-01-16 04:58:00,66.8,58.0,30.06,SSW,192,0.0,1.0,73,0.00,,,0.00,weatherlink.com 1.10,2013-01-16 09:58:00,
2013-01-16 05:13:00,67.1,59.0,30.07,SSW,192,0.0,1.0,74,0.00,,,0.00,weatherlink.com 1.10,2013-01-16 10:13:00,
2013-01-16 05:28:00,67.4,60.0,30.07,SSW,192,0.0,4.0,76,0.00,,,0.00,weatherlink.com 1.10,2013-01-16 10:28:00,
2013-01-16 05:43:00,67.6,60.0,30.07,South,180,1.0,4.0,76,0.00,,,0.00,weatherlink.com 1.10,2013-01-16 10:43:00,
2013-01-16 05:58:00,67.6,60.0,30.07,South,183,0.0,5.0,76,0.00,,,0.00,weatherlink.com 1.10,2013-01-16 10:58:00,
2013-01-16 06:13:00,67.4,59.0,30.07,SSE,166,0.0,4.0,75,0.00,,,0.00,weatherlink.com 1.10,2013-01-16 11:13:00,
2013-01-16 06:28:00,66.9,58.0,30.07,SSE,151,2.0,4.0,73,0.00,,,0.00,weatherlink.com 1.10,2013-01-16 11:28:00,
2013-01-16 06:43:00,66.6,57.0,30.08,SSE,150,0.0,1.0,71,0.00,,,0.00,weatherlink.com 1.10,2013-01-16 11:43:00,
2013-01-16 06:58:00,66.7,57.0,30.09,South,172,0.0,4.0,70,0.00,,,0.00,weatherlink.com 1.10,2013-01-16 11:58:00,
2013-01-16 07:13:00,66.7,57.0,30.09,South,169,2.0,4.0,70,0.00,,,0.00,weatherlink.com 1.10,2013-01-16 12:13:00,
2013-01-16 07:28:00,66.1,57.0,30.09,South,169,0.0,0.0,72,0.00,,,0.00,weatherlink.com 1.10,2013-01-16 12:28:00,
2013-01-16 07:43:00,65.9,56.0,30.10,NNW,328,0.0,0.0,70,0.00,,,0.00,weatherlink.com 1.10,2013-01-16 12:43:00,
2013-01-16 07:58:00,66.3,55.0,30.10,SW,224,0.0,3.0,67,0.00,,,0.00,weatherlink.com 1.10,2013-01-16 12:58:00,
2013-01-16 08:13:00,67.4,58.0,30.11,SSW,200,5.0,6.0,72,0.00,,,0.00,weatherlink.com 1.10,2013-01-16 13:13:00,
2013-01-16 08:28:00,67.9,60.0,30.11,South,186,3.0,4.0,75,0.00,,,0.00,weatherlink.com 1.10,2013-01-16 13:28:00,
2013-01-16 08:43:00,68.2,61.0,30.11,SSW,198,4.0,6.0,77,0.00,,,0.00,weatherlink.com 1.10,2013-01-16 13:43:00,
2013-01-16 08:58:00,68.6,62.0,30.12,SSW,212,5.0,7.0,78,0.00,,,0.00,weatherlink.com 1.10,2013-01-16 13:58:00,
2013-01-16 09:13:00,68.5,61.0,30.13,South,191,4.0,6.0,77,0.00,,,0.00,weatherlink.com 1.10,2013-01-16 14:13:00,
2013-01-16 09:28:00,68.6,61.0,30.12,SW,219,4.0,5.0,77,0.00,,,0.00,weatherlink.com 1.10,2013-01-16 14:28:00,
2013-01-16 09:43:00,69.3,63.0,30.13,SW,217,4.0,7.0,79,0.00,,,0.00,weatherlink.com 1.10,2013-01-16 14:43:00,
2013-01-16 09:58:00,69.7,63.0,30.13,SW,224,5.0,6.0,80,0.00,,,0.00,weatherlink.com 1.10,2013-01-16 14:58:00,
2013-01-16 10:13:00,69.9,63.0,30.13,WSW,253,5.0,5.0,78,0.00,,,0.00,weatherlink.com 1.10,2013-01-16 15:13:00,
2013-01-16 10:28:00,69.7,63.0,30.13,WSW,239,6.0,7.0,80,0.00,,,0.00,weatherlink.com 1.10,2013-01-16 15:28:00,
2013-01-16 10:43:00,70.1,64.0,30.12,SW,233,3.0,5.0,80,0.00,,,0.00,weatherlink.com 1.10,2013-01-16 15:43:00,
2013-01-16 10:58:00,70.5,64.0,30.12,SW,227,0.0,3.0,80,0.00,,,0.00,weatherlink.com 1.10,2013-01-16 15:58:00,
2013-01-16 11:13:00,70.7,64.0,30.11,SW,236,3.0,4.0,80,0.00,,,0.00,weatherlink.com 1.10,2013-01-16 16:13:00,
2013-01-16 11:29:00,71.3,65.0,30.11,WSW,240,2.0,4.0,80,0.00,,,0.00,weatherlink.com 1.10,2013-01-16 16:29:00,
2013-01-16 11:44:00,72.0,65.0,30.10,WSW,238,4.0,6.0,78,0.00,,,0.00,weatherlink.com 1.10,2013-01-16 16:44:00,
2013-01-16 11:59:00,72.5,65.0,30.09,SW,226,2.0,4.0,77,0.00,,,0.00,weatherlink.com 1.10,2013-01-16 16:59:00,
2013-01-16 12:14:00,72.9,65.0,30.09,SW,223,0.0,3.0,76,0.00,,,0.00,weatherlink.com 1.10,2013-01-16 17:14:00,
2013-01-16 12:29:00,73.5,65.0,30.08,SW,223,0.0,3.0,74,0.00,,,0.00,weatherlink.com 1.10,2013-01-16 17:29:00,
2013-01-16 12:44:00,74.1,65.0,30.07,SW,223,2.0,3.0,74,0.00,,,0.00,weatherlink.com 1.10,2013-01-16 17:44:00,
2013-01-16 12:59:00,74.8,64.0,30.06,SW,223,0.0,3.0,70,0.00,,,0.00,weatherlink.com 1.10,2013-01-16 17:59:00,
2013-01-16 13:14:00,74.8,65.0,30.06,SW,223,2.0,3.0,72,0.00,,,0.00,weatherlink.com 1.10,2013-01-16 18:14:00,
2013-01-16 13:29:00,74.6,64.0,30.05,SE,128,3.0,3.0,69,0.00,,,0.00,weatherlink.com 1.10,2013-01-16 18:29:00,
2013-01-16 13:44:00,75.0,63.0,30.05,ESE,123,2.0,3.0,66,0.00,,,0.00,weatherlink.com 1.10,2013-01-16 18:44:00,
2013-01-16 13:59:00,75.2,62.0,30.05,ESE,123,2.0,3.0,64,0.00,,,0.00,weatherlink.com 1.10,2013-01-16 18:59:00,
2013-01-16 14:14:00,76.0,61.0,30.04,ESE,123,2.0,3.0,61,0.00,,,0.00,weatherlink.com 1.10,2013-01-16 19:14:00,
2013-01-16 14:29:00,76.3,62.0,30.04,ESE,123,2.0,3.0,61,0.00,,,0.00,weatherlink.com 1.10,2013-01-16 19:29:00,
2013-01-16 14:44:00,76.5,61.0,30.03,ESE,121,0.0,2.0,60,0.00,,,0.00,weatherlink.com 1.10,2013-01-16 19:44:00,
2013-01-16 14:59:00,76.7,62.0,30.03,NNE,23,0.0,1.0,60,0.00,,,0.00,weatherlink.com 1.10,2013-01-16 19:59:00,
2013-01-16 15:14:00,77.4,62.0,30.03,NNE,19,0.0,0.0,59,0.00,,,0.00,weatherlink.com 1.10,2013-01-16 20:14:00,
2013-01-16 15:29:00,78.6,62.0,30.03,NNE,19,0.0,0.0,57,0.00,,,0.00,weatherlink.com 1.10,2013-01-16 20:29:00,
2013-01-16 15:44:00,79.2,62.0,30.03,NNE,19,0.0,0.0,55,0.00,,,0.00,weatherlink.com 1.10,2013-01-16 20:44:00,
2013-01-16 15:59:00,79.6,62.0,30.03,NNE,19,0.0,0.0,55,0.00,,,0.00,weatherlink.com 1.10,2013-01-16 20:59:00,
2013-01-16 16:14:00,80.4,62.0,30.03,NNE,19,0.0,0.0,53,0.00,,,0.00,weatherlink.com 1.10,2013-01-16 21:14:00,
2013-01-16 16:29:00,80.4,61.0,30.03,NNE,20,0.0,0.0,52,0.00,,,0.00,weatherlink.com 1.10,2013-01-16 21:29:00,
2013-01-16 16:44:00,83.0,61.0,30.03,SW,215,0.0,0.0,48,0.00,,,0.00,weatherlink.com 1.10,2013-01-16 21:44:00,
2013-01-16 16:59:00,82.8,62.0,30.03,SW,215,0.0,0.0,49,0.00,,,0.00,weatherlink.com 1.10,2013-01-16 21:59:00,
2013-01-16 17:14:00,81.3,60.0,30.04,SW,215,0.0,0.0,49,0.00,,,0.00,weatherlink.com 1.10,2013-01-16 22:14:00,
2013-01-16 17:29:00,79.8,61.0,30.04,SW,215,0.0,0.0,52,0.00,,,0.00,weatherlink.com 1.10,2013-01-16 22:29:00,
2013-01-16 17:44:00,79.1,60.0,30.04,SW,215,0.0,0.0,53,0.00,,,0.00,weatherlink.com 1.10,2013-01-16 22:44:00,
2013-01-16 17:59:00,77.7,61.0,30.04,SW,215,0.0,0.0,56,0.00,,,0.00,weatherlink.com 1.10,2013-01-16 22:59:00,
2013-01-16 18:14:00,76.6,60.0,30.04,SW,215,0.0,0.0,57,0.00,,,0.00,weatherlink.com 1.10,2013-01-16 23:14:00,
2013-01-16 18:29:00,75.4,60.0,30.04,SW,215,0.0,0.0,60,0.00,,,0.00,weatherlink.com 1.10,2013-01-16 23:29:00,
2013-01-16 18:44:00,74.8,60.0,30.04,SW,215,0.0,0.0,61,0.00,,,0.00,weatherlink.com 1.10,2013-01-16 23:44:00,
2013-01-16 18:59:00,74.5,61.0,30.04,SW,215,0.0,0.0,62,0.00,,,0.00,weatherlink.com 1.10,2013-01-16 23:59:00,
2013-01-16 19:14:00,74.2,60.0,30.04,SW,215,0.0,0.0,62,0.00,,,0.00,weatherlink.com 1.10,2013-01-17 00:14:00,
2013-01-16 19:29:00,73.1,61.0,30.05,ESE,121,0.0,0.0,65,0.00,,,0.00,weatherlink.com 1.10,2013-01-17 00:29:00,
2013-01-16 19:44:00,72.4,60.0,30.05,SE,124,0.0,0.0,66,0.00,,,0.00,weatherlink.com 1.10,2013-01-17 00:44:00,
2013-01-16 19:59:00,71.9,60.0,30.06,SE,124,0.0,0.0,67,0.00,,,0.00,weatherlink.com 1.10,2013-01-17 00:59:00,
2013-01-16 20:14:00,71.6,60.0,30.06,SE,124,0.0,0.0,67,0.00,,,0.00,weatherlink.com 1.10,2013-01-17 01:14:00,
2013-01-16 20:29:00,71.2,61.0,30.06,SE,124,0.0,0.0,69,0.00,,,0.00,weatherlink.com 1.10,2013-01-17 01:29:00,
2013-01-16 20:44:00,71.3,61.0,30.05,SE,124,0.0,0.0,69,0.00,,,0.00,weatherlink.com 1.10,2013-01-17 01:44:00,
2013-01-16 20:59:00,71.2,60.0,30.06,SE,124,0.0,0.0,67,0.00,,,0.00,weatherlink.com 1.10,2013-01-17 01:59:00,
2013-01-16 21:14:00,70.6,60.0,30.05,SE,124,0.0,0.0,69,0.00,,,0.00,weatherlink.com 1.10,2013-01-17 02:14:00,
2013-01-16 21:29:00,70.4,60.0,30.05,SE,124,0.0,0.0,70,0.00,,,0.00,weatherlink.com 1.10,2013-01-17 02:29:00,
2013-01-16 21:44:00,70.1,60.0,30.05,SE,124,0.0,0.0,70,0.00,,,0.00,weatherlink.com 1.10,2013-01-17 02:44:00,
2013-01-16 21:59:00,69.5,60.0,30.05,East,97,2.0,4.0,72,0.00,,,0.00,weatherlink.com 1.10,2013-01-17 02:59:00,
2013-01-16 22:14:00,69.1,61.0,30.05,East,97,3.0,4.0,74,0.00,,,0.00,weatherlink.com 1.10,2013-01-17 03:14:00,
2013-01-16 22:29:00,70.2,63.0,30.05,SE,126,5.0,7.0,77,0.00,,,0.00,weatherlink.com 1.10,2013-01-17 03:29:00,
2013-01-16 22:44:00,70.2,63.0,30.05,SE,130,6.0,8.0,78,0.00,,,0.00,weatherlink.com 1.10,2013-01-17 03:44:00,
2013-01-16 22:59:00,69.9,63.0,30.05,SE,134,4.0,7.0,79,0.00,,,0.00,weatherlink.com 1.10,2013-01-17 03:59:00,
2013-01-16 23:14:00,69.9,63.0,30.04,SE,134,4.0,8.0,79,0.00,,,0.00,weatherlink.com 1.10,2013-01-17 04:14:00,
2013-01-16 23:29:00,69.6,63.0,30.05,West,277,6.0,11.0,79,0.00,,,0.00,weatherlink.com 1.10,2013-01-17 04:29:00,
2013-01-16 23:44:00,68.9,62.0,30.05,West,265,0.0,5.0,79,0.00,,,0.00,weatherlink.com 1.10,2013-01-17 04:44:00,
2013-01-16 23:59:00,68.4,62.0,30.05,West,265,0.0,0.0,79,0.00,,,0.00,weatherlink.com 1.10,2013-01-17 04:59:00,